Time;durP1;ratioP1;P1;durP2;ratioP2;P2;SDS_P1;SDS_P2;PMS_P1;PMS_P2;Temp;Humidity;BMP_temperature;BMP_pressure;BME280_temperature;BME280_humidity;BME280_pressure;Samples;Min_cycle;Max_cycle;Signal;HPM_P1;HPM_P2
2022/04/08 00:00:43;;;;;;;5.25;3.22;;;;;;;14.71;51.65;99475.72;5045721;28;20115;-79
2022/04/08 00:03:28;;;;;;;7.40;3.85;;;;;;;14.76;51.42;99477.34;5055100;28;20043;-80
2022/04/08 00:06:14;;;;;;;12.35;4.53;;;;;;;14.72;51.60;99465.56;5023671;28;20152;-79
2022/04/08 00:08:59;;;;;;;8.77;3.63;;;;;;;14.79;51.27;99473.84;5056375;28;20048;-80
2022/04/08 00:11:44;;;;;;;9.77;3.72;;;;;;;14.70;51.43;99476.09;5055452;28;20484;-79
2022/04/08 00:14:29;;;;;;;5.72;2.42;;;;;;;14.67;51.37;99477.66;5055393;28;20499;-79
2022/04/08 00:17:13;;;;;;;5.68;2.80;;;;;;;14.60;51.68;99479.50;5054725;28;20055;-79
2022/04/08 00:19:58;;;;;;;3.10;2.35;;;;;;;14.69;51.11;99478.03;5054488;28;20040;-79
2022/04/08 00:22:43;;;;;;;13.23;3.72;;;;;;;14.80;51.14;99478.19;5054638;28;20515;-79
2022/04/08 00:25:28;;;;;;;;;;;;;;;14.68;51.39;99468.25;5056163;28;20048;-80
2022/04/08 00:28:12;;;;;;;5.32;3.67;;;;;;;14.82;50.47;99465.69;5044293;28;19913;-79
2022/04/08 00:30:57;;;;;;;6.35;3.97;;;;;;;14.78;50.64;99467.59;5041297;28;20044;-79
2022/04/08 00:33:42;;;;;;;3.92;2.78;;;;;;;14.45;51.72;99471.13;5054982;28;20048;-79
2022/04/08 00:36:26;;;;;;;11.68;3.72;;;;;;;14.43;51.48;99473.41;5017268;23;20427;-79
2022/04/08 00:39:13;;;;;;;7.72;3.63;;;;;;;14.25;51.97;99466.13;4987411;28;20514;-79
2022/04/08 00:42:01;;;;;;;4.22;3.50;;;;;;;14.09;52.32;99460.81;4972942;28;20041;-79
2022/04/08 00:44:46;;;;;;;7.20;3.33;;;;;;;14.07;52.59;99460.38;4972850;28;20545;-79
2022/04/08 00:47:35;;;;;;;7.60;3.50;;;;;;;14.03;52.93;99462.28;4967363;28;20058;-79
2022/04/08 00:50:22;;;;;;;9.18;4.18;;;;;;;13.91;53.26;99459.78;4957839;28;20058;-80
2022/04/08 00:53:07;;;;;;;9.07;4.65;;;;;;;14.39;51.83;99450.72;4956008;28;20050;-79
2022/04/08 00:55:52;;;;;;;20.23;5.13;;;;;;;14.32;51.55;99456.06;4953944;29;20095;-79
2022/04/08 00:58:38;;;;;;;10.68;4.18;;;;;;;14.32;51.67;99463.50;4953811;29;20411;-79
2022/04/08 01:01:24;;;;;;;6.90;3.63;;;;;;;14.15;52.15;99453.88;4953732;29;20061;-80
2022/04/08 01:04:08;;;;;;;12.55;5.47;;;;;;;14.08;52.70;99461.97;4953431;29;20067;-79
2022/04/08 01:06:54;;;;;;;;;;;;;;;14.13;52.52;99459.72;4940533;29;20054;-80
2022/04/08 01:09:38;;;;;;;11.05;5.95;;;;;;;13.94;53.39;99454.34;4969518;28;20294;-79
2022/04/08 01:12:23;;;;;;;10.82;7.38;;;;;;;14.14;52.53;99457.75;4953650;29;20055;-79
2022/04/08 01:15:09;;;;;;;9.73;5.47;;;;;;;14.07;52.88;99454.91;4937209;29;20047;-78
2022/04/08 01:17:54;;;;;;;16.73;9.52;;;;;;;13.98;53.01;99451.66;4969881;28;20050;-79
2022/04/08 01:20:39;;;;;;;15.60;7.63;;;;;;;14.01;52.67;99459.16;4952336;29;20039;-79
2022/04/08 01:23:24;;;;;;;19.52;8.52;;;;;;;13.66;53.66;99462.91;4954313;29;20055;-80
2022/04/08 01:26:11;;;;;;;12.52;7.93;;;;;;;13.75;53.63;99450.94;4953557;29;20054;-79
2022/04/08 01:28:56;;;;;;;11.20;7.85;;;;;;;13.71;53.43;99435.28;4934702;29;20058;-78
2022/04/08 01:31:44;;;;;;;17.42;9.18;;;;;;;13.57;53.83;99443.25;4948107;28;20527;-79
2022/04/08 01:34:28;;;;;;;12.63;6.82;;;;;;;13.57;53.45;99456.91;4953220;29;20072;-79
2022/04/08 01:37:14;;;;;;;13.00;6.35;;;;;;;13.43;53.68;99453.16;4983649;28;20068;-80
2022/04/08 01:39:59;;;;;;;14.98;7.80;;;;;;;13.50;53.65;99451.34;4972236;28;20041;-79
2022/04/08 01:42:43;;;;;;;10.57;6.18;;;;;;;13.54;53.22;99452.19;4972225;28;20049;-78
2022/04/08 01:45:28;;;;;;;20.88;11.82;;;;;;;13.43;54.65;99451.22;4972595;28;20057;-78
2022/04/08 01:48:13;;;;;;;16.92;9.98;;;;;;;13.46;54.56;99457.91;4971945;28;20049;-78
2022/04/08 01:50:58;;;;;;;14.10;8.02;;;;;;;13.38;54.63;99454.25;4972247;28;20054;-79
2022/04/08 01:53:43;;;;;;;10.98;6.95;;;;;;;13.33;54.52;99451.81;4976842;28;20069;-78
2022/04/08 01:56:27;;;;;;;21.45;11.07;;;;;;;13.28;54.50;99446.66;4975013;28;21009;-78
2022/04/08 01:59:11;;;;;;;17.17;9.45;;;;;;;13.09;55.78;99452.16;4995590;28;20050;-79
2022/04/08 02:01:59;;;;;;;14.05;10.25;;;;;;;12.96;56.01;99448.00;4986814;28;20414;-79
2022/04/08 02:04:44;;;;;;;16.48;8.85;;;;;;;12.84;55.85;99457.94;4971477;28;20422;-78
2022/04/08 02:07:29;;;;;;;16.48;9.15;;;;;;;12.68;56.18;99449.06;4993432;28;20053;-78
2022/04/08 02:10:13;;;;;;;18.95;9.85;;;;;;;12.49;57.32;99451.00;4991749;28;20050;-79
2022/04/08 02:12:58;;;;;;;21.88;10.65;;;;;;;12.31;58.36;99461.53;4982659;28;20061;-80
2022/04/08 02:15:42;;;;;;;22.98;12.77;;;;;;;12.32;57.81;99450.28;4975996;28;20046;-80
2022/04/08 02:18:27;;;;;;;22.92;11.00;;;;;;;12.52;58.38;99445.59;4975152;28;20422;-80
2022/04/08 02:21:18;;;;;;;27.65;15.55;;;;;;;12.47;59.38;99464.97;4976008;28;20410;-80
2022/04/08 02:24:04;;;;;;;36.03;20.35;;;;;;;12.45;59.94;99464.53;4979573;28;20061;-80
2022/04/08 02:26:49;;;;;;;34.85;18.80;;;;;;;12.47;58.59;99467.72;4975982;28;20050;-80
2022/04/08 02:29:34;;;;;;;34.20;17.75;;;;;;;12.40;60.00;99471.06;4975612;28;20058;-78
2022/04/08 02:32:19;;;;;;;22.80;13.10;;;;;;;12.35;59.15;99465.91;4975549;28;20050;-77
2022/04/08 02:35:05;;;;;;;30.58;18.20;;;;;;;12.29;59.86;99470.03;4967012;28;20049;-78
2022/04/08 02:37:51;;;;;;;40.30;23.25;;;;;;;12.38;60.12;99467.94;4975527;28;20053;-78
2022/04/08 02:40:36;;;;;;;42.00;24.00;;;;;;;12.35;59.63;99460.44;4975363;28;20046;-78
2022/04/08 02:43:22;;;;;;;41.15;21.05;;;;;;;12.51;60.04;99459.59;4965579;28;20047;-78
2022/04/08 02:46:07;;;;;;;41.63;25.90;;;;;;;12.59;59.44;99451.22;4975935;28;20057;-79
2022/04/08 02:48:51;;;;;;;48.85;29.67;;;;;;;12.46;60.73;99452.50;4974144;28;20418;-78
2022/04/08 02:51:36;;;;;;;49.47;29.73;;;;;;;12.59;60.42;99451.22;4960084;28;20514;-78
2022/04/08 02:54:21;;;;;;;55.30;30.40;;;;;;;12.62;60.50;99455.94;4976571;28;20053;-78
2022/04/08 02:57:06;;;;;;;37.92;23.60;;;;;;;12.53;61.59;99460.81;4974783;28;20506;-78
2022/04/08 02:59:53;;;;;;;41.22;25.30;;;;;;;12.41;62.38;99466.41;4991806;28;20065;-77
2022/04/08 03:02:37;;;;;;;57.88;32.95;;;;;;;12.46;62.08;99463.41;4976126;28;20419;-79
2022/04/08 03:05:22;;;;;;;43.92;24.73;;;;;;;12.55;61.91;99460.44;4974487;28;20050;-78
2022/04/08 03:08:07;;;;;;;40.58;26.55;;;;;;;12.86;61.14;99460.28;4977738;28;20066;-78
2022/04/08 03:10:52;;;;;;;;;;;;;;;12.72;61.45;99451.84;4980540;28;20049;-79
2022/04/08 03:13:37;;;;;;;55.47;30.38;;;;;;;12.81;60.90;99452.41;4974607;28;19913;-78
2022/04/08 03:16:21;;;;;;;56.65;33.10;;;;;;;12.71;60.97;99452.97;4974498;28;20045;-78
2022/04/08 03:19:06;;;;;;;52.65;31.63;;;;;;;12.61;60.33;99457.09;4957393;28;20522;-78
2022/04/08 03:21:51;;;;;;;52.85;32.17;;;;;;;12.61;60.94;99459.81;4959864;28;20058;-79
2022/04/08 03:24:35;;;;;;;35.88;23.70;;;;;;;12.56;60.59;99446.47;4964525;28;20050;-78
2022/04/08 03:27:21;;;;;;;58.10;33.97;;;;;;;12.51;61.29;99443.22;4973755;28;20057;-78
2022/04/08 03:30:07;;;;;;;;;;;;;;;12.45;62.24;99450.91;4974555;28;20422;-79
2022/04/08 03:32:51;;;;;;;40.67;25.45;;;;;;;12.68;61.59;99446.31;4966713;28;20370;-78
2022/04/08 03:35:36;;;;;;;40.35;24.27;;;;;;;12.41;61.33;99453.56;4976208;28;20054;-79
2022/04/08 03:38:21;;;;;;;57.80;31.10;;;;;;;12.03;61.75;99452.75;4974135;28;20062;-79
2022/04/08 03:41:05;;;;;;;54.05;29.73;;;;;;;11.98;61.90;99453.81;4967898;28;20114;-79
2022/04/08 03:43:50;;;;;;;50.95;31.38;;;;;;;11.87;62.64;99453.56;4976753;28;20414;-79
2022/04/08 03:46:34;;;;;;;53.75;31.42;;;;;;;11.89;62.62;99455.91;4969785;28;20057;-78
2022/04/08 03:49:21;;;;;;;55.33;32.67;;;;;;;11.82;62.95;99451.09;4970114;28;20057;-79
2022/04/08 03:52:08;;;;;;;54.10;32.33;;;;;;;12.05;61.90;99455.88;4969044;28;20526;-78
2022/04/08 03:54:55;;;;;;;50.22;31.55;;;;;;;12.06;61.77;99466.44;4991760;28;20045;-78
2022/04/08 03:57:40;;;;;;;47.05;30.88;;;;;;;12.01;62.20;99463.97;4973947;28;20058;-80
2022/04/08 04:00:25;;;;;;;43.53;24.58;;;;;;;11.91;62.40;99459.88;4989948;28;20042;-78
2022/04/08 04:03:10;;;;;;;38.53;24.35;;;;;;;12.13;61.78;99450.25;4974622;28;20050;-80
2022/04/08 04:05:54;;;;;;;51.92;31.02;;;;;;;11.88;63.02;99460.59;4973821;28;20054;-78
2022/04/08 04:08:39;;;;;;;55.03;31.38;;;;;;;11.88;63.30;99466.03;4973516;28;20062;-78
2022/04/08 04:11:24;;;;;;;36.85;22.77;;;;;;;12.12;62.06;99466.94;4973618;28;20050;-78
2022/04/08 04:14:09;;;;;;;53.35;32.75;;;;;;;12.19;61.56;99464.38;4973056;28;20538;-79
2022/04/08 04:16:54;;;;;;;39.55;23.73;;;;;;;11.97;62.82;99466.63;4987393;28;20050;-79
2022/04/08 04:19:38;;;;;;;45.80;30.58;;;;;;;11.91;62.96;99464.53;4974581;28;20050;-79
2022/04/08 04:22:23;;;;;;;39.25;24.10;;;;;;;12.19;62.10;99453.50;4980620;28;20050;-78
2022/04/08 04:25:09;;;;;;;38.88;23.83;;;;;;;12.21;62.58;99478.44;4977338;28;20069;-79
2022/04/08 04:27:55;;;;;;;49.00;30.20;;;;;;;12.31;62.29;99472.41;4961502;28;20057;-78
2022/04/08 04:30:40;;;;;;;48.00;30.02;;;;;;;12.15;62.74;99471.69;4971608;28;20050;-78
2022/04/08 04:33:24;;;;;;;43.58;28.85;;;;;;;12.23;62.61;99474.22;4976873;28;20565;-79
2022/04/08 04:36:11;;;;;;;34.58;23.50;;;;;;;12.20;62.36;99480.38;4972967;28;20102;-79
2022/04/08 04:38:56;;;;;;;48.97;28.25;;;;;;;12.24;61.68;99483.94;4973554;28;20050;-78
2022/04/08 04:41:40;;;;;;;38.67;21.17;;;;;;;12.11;62.24;99484.44;4988811;28;20049;-79
2022/04/08 04:44:27;;;;;;;38.53;24.05;;;;;;;12.11;62.19;99495.34;4973076;28;20123;-79
2022/04/08 04:47:12;;;;;;;48.70;28.85;;;;;;;12.14;62.46;99479.06;4959267;28;20061;-79
2022/04/08 04:49:56;;;;;;;48.10;28.58;;;;;;;12.12;62.59;99488.75;4963518;28;20533;-80
2022/04/08 04:52:41;;;;;;;45.17;28.42;;;;;;;11.99;62.57;99494.28;4975107;28;20042;-78
2022/04/08 04:55:26;;;;;;;35.97;21.77;;;;;;;11.98;63.03;99502.84;4973228;28;20049;-78
2022/04/08 04:58:11;;;;;;;50.05;28.20;;;;;;;12.05;62.60;99483.13;4972951;28;20131;-78
2022/04/08 05:00:56;;;;;;;46.38;28.23;;;;;;;11.99;62.95;99497.03;4975418;28;20054;-77
2022/04/08 05:03:41;;;;;;;43.47;22.08;;;;;;;12.05;62.87;99496.75;4971918;28;20058;-77
2022/04/08 05:06:25;;;;;;;34.10;22.15;;;;;;;11.93;63.42;99508.56;4972433;28;20419;-77
2022/04/08 05:09:10;;;;;;;34.88;21.80;;;;;;;11.77;63.97;99510.50;4973261;28;20442;-77
2022/04/08 05:11:55;;;;;;;48.15;28.58;;;;;;;11.97;63.22;99517.59;4973071;28;20514;-76
2022/04/08 05:14:40;;;;;;;38.10;22.42;;;;;;;11.88;63.34;99514.28;4972130;28;20537;-76
2022/04/08 05:17:25;;;;;;;;;;;;;;;11.89;63.93;99524.00;4976208;28;20050;-78
2022/04/08 05:20:10;;;;;;;47.45;28.90;;;;;;;11.84;63.76;99525.06;4970835;28;20374;-79
2022/04/08 05:22:55;;;;;;;44.78;23.40;;;;;;;11.94;63.36;99529.19;4972692;28;20058;-77
2022/04/08 05:25:40;;;;;;;42.60;22.65;;;;;;;11.88;63.60;99528.69;4967697;28;20418;-77
2022/04/08 05:28:25;;;;;;;52.88;28.38;;;;;;;11.93;63.77;99522.97;4968029;28;20054;-77
2022/04/08 05:31:09;;;;;;;41.08;23.80;;;;;;;12.02;63.36;99530.16;4975714;28;20081;-79
2022/04/08 05:33:54;;;;;;;43.08;25.55;;;;;;;11.93;63.97;99536.59;4960997;29;20050;-79
2022/04/08 05:36:39;;;;;;;42.00;24.65;;;;;;;11.98;63.82;99547.22;4957646;29;20058;-78
2022/04/08 05:39:23;;;;;;;42.50;24.27;;;;;;;12.04;63.65;99550.44;4958495;28;20070;-78
2022/04/08 05:42:08;;;;;;;45.53;23.92;;;;;;;11.85;64.44;99548.44;4956604;28;20054;-79
2022/04/08 05:44:53;;;;;;;39.45;23.48;;;;;;;11.91;64.41;99551.69;4957789;29;20069;-79
2022/04/08 05:47:38;;;;;;;52.75;31.83;;;;;;;11.98;64.22;99546.44;4958659;28;20348;-79
2022/04/08 05:50:23;;;;;;;60.40;30.90;;;;;;;12.09;64.23;99554.88;4957183;29;20050;-78
2022/04/08 05:53:07;;;;;;;53.90;30.92;;;;;;;12.07;64.12;99560.66;4960033;28;20124;-77
2022/04/08 05:55:55;;;;;;;42.15;23.30;;;;;;;12.17;63.69;99559.31;4957846;29;20695;-78
2022/04/08 05:58:39;;;;;;;54.40;30.40;;;;;;;12.42;63.19;99558.75;4943589;29;20062;-77
2022/04/08 06:01:24;;;;;;;56.17;30.95;;;;;;;12.63;62.60;99561.16;4957240;29;20046;-77
2022/04/08 06:04:08;;;;;;;41.08;23.02;;;;;;;12.91;61.98;99576.53;4957156;29;20058;-79
2022/04/08 06:06:54;;;;;;;36.85;22.02;;;;;;;12.97;61.68;99564.97;4943473;29;20051;-79
2022/04/08 06:09:38;;;;;;;37.33;21.83;;;;;;;12.93;61.99;99568.78;4960813;28;20516;-79
2022/04/08 06:12:23;;;;;;;35.95;21.73;;;;;;;12.89;62.08;99565.19;4956887;29;20050;-79
2022/04/08 06:15:07;;;;;;;53.25;29.15;;;;;;;13.13;61.07;99570.41;4943192;29;20070;-79
2022/04/08 06:17:54;;;;;;;39.55;23.38;;;;;;;13.12;60.86;99574.28;4960881;28;20435;-80
2022/04/08 06:20:39;;;;;;;55.55;30.35;;;;;;;13.06;60.57;99587.38;4958256;28;20058;-77
2022/04/08 06:23:24;;;;;;;41.92;23.25;;;;;;;12.97;61.10;99607.84;4956965;28;20058;-79
2022/04/08 06:26:09;;;;;;;38.10;23.60;;;;;;;12.96;61.29;99609.00;4956532;29;20526;-79
2022/04/08 06:28:58;;;;;;;43.13;25.48;;;;;;;13.07;61.10;99613.53;4959177;28;20518;-79
2022/04/08 06:31:43;;;;;;;51.17;29.13;;;;;;;13.18;61.07;99621.97;4956374;29;20059;-79
2022/04/08 06:34:28;;;;;;;41.92;23.25;;;;;;;13.08;61.11;99619.78;4956439;29;20054;-79
2022/04/08 06:37:13;;;;;;;35.22;22.63;;;;;;;13.08;61.03;99612.38;5021388;23;20053;-80
2022/04/08 06:40:02;;;;;;;;;;;;;;;13.08;61.33;99627.97;5016153;28;20053;-78
2022/04/08 06:42:46;;;;;;;50.30;28.38;;;;;;;13.16;60.99;99627.78;5018578;28;19913;-79
2022/04/08 06:45:31;;;;;;;47.92;29.50;;;;;;;13.19;60.91;99631.75;5020637;28;20414;-80
2022/04/08 06:48:16;;;;;;;40.83;22.42;;;;;;;13.10;61.69;99636.59;5040777;28;20052;-78
2022/04/08 06:51:04;;;;;;;48.80;24.40;;;;;;;13.10;61.58;99631.94;5037291;28;20048;-80
2022/04/08 06:53:49;;;;;;;46.72;29.00;;;;;;;13.10;61.57;99637.41;5024172;28;20537;-79
2022/04/08 06:56:34;;;;;;;;;;;;;;;13.20;61.36;99644.25;5036753;28;20060;-78
2022/04/08 06:59:18;;;;;;;49.35;30.27;;;;;;;13.08;62.02;99636.94;5034909;28;19913;-80
2022/04/08 07:02:04;;;;;;;53.40;29.33;;;;;;;13.04;62.31;99646.22;5036293;28;20048;-79
2022/04/08 07:04:48;;;;;;;44.28;24.45;;;;;;;13.02;62.70;99654.75;5035162;28;20057;-79
2022/04/08 07:07:34;;;;;;;;;;;;;;;13.09;62.55;99670.50;5035664;28;20048;-80
2022/04/08 07:10:18;;;;;;;49.67;29.38;;;;;;;13.08;62.88;99664.25;5035670;28;19913;-80
2022/04/08 07:13:04;;;;;;;47.05;30.70;;;;;;;13.24;62.27;99664.22;5022020;28;20060;-78
2022/04/08 07:15:48;;;;;;;44.90;24.20;;;;;;;13.24;61.95;99661.50;5036070;28;20060;-78
2022/04/08 07:18:34;;;;;;;56.08;31.17;;;;;;;13.36;61.36;99660.56;5034103;28;20057;-78
2022/04/08 07:21:19;;;;;;;55.60;29.70;;;;;;;13.26;61.14;99656.44;5021494;28;20057;-79
2022/04/08 07:24:04;;;;;;;38.88;24.00;;;;;;;13.27;61.68;99655.31;5034571;28;20376;-79
2022/04/08 07:26:50;;;;;;;47.45;29.95;;;;;;;13.39;61.55;99654.38;5023505;28;20052;-78
2022/04/08 07:29:35;;;;;;;52.15;29.83;;;;;;;13.37;60.24;99640.28;5021017;28;20048;-78
2022/04/08 07:32:23;;;;;;;61.88;28.92;;;;;;;13.47;60.38;99647.91;5023843;28;20079;-82
2022/04/08 07:35:09;;;;;;;49.75;30.05;;;;;;;13.50;59.91;99658.91;5038678;28;20065;-78
2022/04/08 07:37:54;;;;;;;47.85;29.45;;;;;;;13.62;60.22;99660.69;5039213;28;20540;-79
2022/04/08 07:40:39;;;;;;;48.42;26.48;;;;;;;13.71;59.97;99664.00;5039034;28;20048;-79
2022/04/08 07:43:25;;;;;;;36.40;22.65;;;;;;;13.68;60.01;99670.16;5029515;28;20048;-79
2022/04/08 07:46:10;;;;;;;47.72;26.38;;;;;;;13.70;60.20;99663.22;5040570;28;20052;-78
2022/04/08 07:48:55;;;;;;;;;;;;;;;13.80;59.16;99667.28;5037071;28;20068;-79
2022/04/08 07:51:41;;;;;;;40.47;25.13;;;;;;;13.82;59.21;99669.63;5025639;28;19913;-79
2022/04/08 07:54:26;;;;;;;40.55;26.52;;;;;;;13.89;59.39;99673.31;5036552;28;20060;-79
2022/04/08 07:57:14;;;;;;;37.72;24.58;;;;;;;14.06;58.81;99669.31;5037313;28;20048;-79
2022/04/08 07:59:59;;;;;;;38.63;24.75;;;;;;;14.16;58.25;99667.94;5036953;28;20061;-79
2022/04/08 08:02:44;;;;;;;;;;;;;;;14.21;58.63;99675.81;5037677;28;20072;-79
2022/04/08 08:05:31;;;;;;;51.42;26.85;;;;;;;14.27;58.73;99664.22;5035762;28;19913;-79
2022/04/08 08:08:16;;;;;;;37.60;21.90;;;;;;;14.45;58.37;99670.00;5036862;28;20524;-79
2022/04/08 08:11:00;;;;;;;31.33;20.65;;;;;;;14.59;58.14;99669.44;5038288;28;20548;-79
2022/04/08 08:13:45;;;;;;;30.67;18.05;;;;;;;14.67;57.22;99676.59;5036578;28;20056;-79
2022/04/08 08:16:30;;;;;;;45.33;22.20;;;;;;;14.75;57.09;99681.00;5036724;28;20053;-80
2022/04/08 08:19:15;;;;;;;;;;;;;;;14.87;57.32;99680.81;5038778;28;20044;-80
2022/04/08 08:22:00;;;;;;;39.37;23.13;;;;;;;14.88;57.30;99664.00;5036485;28;19913;-79
2022/04/08 08:24:45;;;;;;;28.15;16.02;;;;;;;14.96;56.89;99667.66;5035725;28;20170;-80
2022/04/08 08:27:46;;;;;;;35.63;19.55;;;;;;;15.02;57.12;99679.06;5036520;28;20056;-80
2022/04/08 08:30:32;;;;;;;39.92;23.25;;;;;;;15.18;56.09;99674.22;5034763;28;20060;-78
2022/04/08 08:33:17;;;;;;;41.25;20.15;;;;;;;15.22;55.43;99684.03;5034431;28;20052;-79
2022/04/08 08:36:01;;;;;;;29.50;19.42;;;;;;;15.34;55.31;99678.31;5034160;28;20053;-78
2022/04/08 08:38:46;;;;;;;26.27;15.00;;;;;;;15.37;55.34;99680.31;5034791;28;20052;-79
2022/04/08 08:41:31;;;;;;;;;;;;;;;15.35;55.50;99668.16;5034636;28;20059;-80
2022/04/08 08:44:16;;;;;;;34.70;19.85;;;;;;;15.51;55.20;99673.44;5035009;28;20309;-80
2022/04/08 08:47:02;;;;;;;38.17;18.08;;;;;;;15.73;55.17;99672.56;5035375;28;20533;-79
2022/04/08 08:49:50;;;;;;;34.40;20.05;;;;;;;15.68;54.88;99683.84;5025522;28;20540;-79
2022/04/08 08:52:34;;;;;;;31.35;17.48;;;;;;;15.73;54.29;99684.31;5037398;28;20048;-79
2022/04/08 08:55:19;;;;;;;17.52;11.70;;;;;;;15.90;54.03;99684.88;5036507;28;20060;-79
2022/04/08 08:58:05;;;;;;;28.25;16.08;;;;;;;15.99;53.51;99683.41;5035728;28;20049;-79
2022/04/08 09:00:50;;;;;;;28.42;16.00;;;;;;;16.15;53.40;99675.72;5036910;28;20500;-79
2022/04/08 09:03:34;;;;;;;17.58;10.60;;;;;;;16.24;52.72;99678.94;5033516;28;20044;-79
2022/04/08 09:06:19;;;;;;;30.83;15.80;;;;;;;16.43;52.64;99674.41;5027806;28;20044;-78
2022/04/08 09:09:04;;;;;;;31.60;14.25;;;;;;;16.40;52.58;99677.91;5026891;28;20048;-79
2022/04/08 09:11:48;;;;;;;;;;;;;;;16.55;51.93;99674.91;5039506;28;20513;-79
2022/04/08 09:14:35;;;;;;;21.80;12.20;;;;;;;16.58;51.40;99678.81;5039133;28;19917;-79
2022/04/08 09:17:21;;;;;;;16.45;11.55;;;;;;;16.52;51.62;99670.16;5039057;28;20052;-79
2022/04/08 09:20:06;;;;;;;17.90;10.50;;;;;;;16.43;51.37;99668.91;5026426;28;20045;-81
2022/04/08 09:22:55;;;;;;;14.63;7.38;;;;;;;16.46;51.67;99668.13;5030322;28;20049;-79
2022/04/08 09:25:40;;;;;;;20.92;10.50;;;;;;;16.95;50.69;99676.78;5042147;28;20044;-80
2022/04/08 09:28:32;;;;;;;20.70;10.75;;;;;;;17.50;49.18;99679.41;5039960;28;20045;-80
2022/04/08 09:31:19;;;;;;;15.45;8.88;;;;;;;18.01;48.26;99686.66;5039185;28;20053;-80
2022/04/08 09:34:13;;;;;;;16.55;9.25;;;;;;;19.26;44.28;99672.41;5039004;28;20512;-79
2022/04/08 09:36:57;;;;;;;18.33;8.40;;;;;;;20.74;40.68;99675.50;5038967;28;20048;-79
2022/04/08 09:40:04;;;;;;;21.75;8.27;;;;;;;21.03;39.64;99678.78;5039822;28;20053;-79
2022/04/08 09:42:48;;;;;;;12.65;7.72;;;;;;;20.65;40.67;99675.19;5039116;28;20040;-79
2022/04/08 09:45:34;;;;;;;13.88;7.75;;;;;;;19.39;42.85;99673.56;5024289;28;20064;-79
2022/04/08 09:48:19;;;;;;;18.63;6.72;;;;;;;18.99;43.87;99674.88;5042296;28;20049;-80
2022/04/08 09:51:04;;;;;;;;;;;;;;;18.78;45.09;99661.94;5039013;28;20052;-80
2022/04/08 09:53:57;;;;;;;7.47;4.50;;;;;;;18.49;45.37;99663.09;5036215;28;19913;-78
2022/04/08 09:56:43;;;;;;;15.95;7.65;;;;;;;18.32;46.62;99650.91;5036294;28;20068;-78
2022/04/08 09:59:32;;;;;;;16.85;7.03;;;;;;;18.43;46.60;99648.16;5035947;28;20520;-78
2022/04/08 10:02:19;;;;;;;15.25;7.20;;;;;;;18.26;46.74;99646.97;5039787;28;20406;-80
2022/04/08 10:05:03;;;;;;;14.10;6.45;;;;;;;18.30;47.00;99647.75;5041424;28;20064;-80
2022/04/08 10:07:52;;;;;;;;;;;;;;;18.40;46.33;99648.94;5038093;28;20049;-80
2022/04/08 10:10:48;;;;;;;15.13;5.25;;;;;;;18.49;46.22;99646.56;5037584;28;20281;-80
2022/04/08 10:14:00;;;;;;;16.27;6.35;;;;;;;18.42;45.39;99645.81;5037666;28;20040;-80
2022/04/08 10:16:51;;;;;;;17.13;6.35;;;;;;;18.51;45.61;99644.22;5037371;28;20429;-80
2022/04/08 10:19:36;;;;;;;21.60;6.07;;;;;;;18.61;45.66;99637.16;5041103;28;20410;-79
2022/04/08 10:22:21;;;;;;;15.63;6.00;;;;;;;18.68;45.13;99632.44;5035790;28;20048;-79
2022/04/08 10:25:13;;;;;;;;;;;;;;;18.91;45.00;99623.72;5035777;28;20620;-79
2022/04/08 10:28:01;;;;;;;12.75;5.82;;;;;;;18.93;45.13;99623.31;5025769;28;19913;-78
2022/04/08 10:30:47;;;;;;;17.70;6.13;;;;;;;19.11;44.45;99610.25;5037821;28;20398;-80
2022/04/08 10:33:32;;;;;;;10.40;4.60;;;;;;;19.25;44.11;99609.44;5022144;28;20049;-79
2022/04/08 10:36:17;;;;;;;15.38;6.35;;;;;;;19.28;43.93;99614.94;5037219;28;20056;-79
2022/04/08 10:39:14;;;;;;;14.30;5.40;;;;;;;19.39;44.05;99614.88;5037193;28;20053;-81
2022/04/08 10:42:00;;;;;;;13.07;5.18;;;;;;;19.61;43.79;99613.59;5037768;28;20528;-81
2022/04/08 10:44:45;;;;;;;14.32;5.80;;;;;;;19.44;43.64;99609.78;5040742;28;20056;-81
2022/04/08 10:47:30;;;;;;;11.88;5.60;;;;;;;19.58;43.46;99606.94;5023751;28;20048;-80
2022/04/08 10:50:28;;;;;;;;;;;;;;;19.69;43.93;99604.13;5037929;28;20057;-80
2022/04/08 10:53:18;;;;;;;11.98;5.57;;;;;;;19.79;42.92;99599.72;5037896;28;20332;-80
2022/04/08 10:56:13;;;;;;;16.75;5.20;;;;;;;19.90;43.37;99589.41;5038084;28;20060;-80
2022/04/08 10:58:59;;;;;;;12.07;4.97;;;;;;;19.91;42.69;99588.22;5037768;28;20049;-81
2022/04/08 11:01:46;;;;;;;13.80;5.20;;;;;;;19.91;43.09;99586.22;5034537;28;20053;-79
2022/04/08 11:04:32;;;;;;;27.40;6.85;;;;;;;19.91;43.72;99579.94;5021652;28;20521;-79
2022/04/08 11:07:17;;;;;;;17.00;6.53;;;;;;;19.74;43.75;99575.31;5024499;28;20045;-79
2022/04/08 11:10:03;;;;;;;14.70;4.57;;;;;;;19.61;43.76;99580.50;5016465;28;20049;-78
2022/04/08 11:12:50;;;;;;;12.88;4.82;;;;;;;19.13;44.59;99572.88;5002896;28;20045;-79
2022/04/08 11:15:35;;;;;;;12.38;4.85;;;;;;;19.08;44.69;99572.50;5006900;28;20049;-78
2022/04/08 11:18:20;;;;;;;14.73;4.95;;;;;;;19.04;44.83;99571.72;5016352;28;20052;-79
2022/04/08 11:21:16;;;;;;;9.70;4.50;;;;;;;18.87;45.34;99564.31;5020954;28;20060;-79
2022/04/08 11:24:04;;;;;;;10.52;4.50;;;;;;;18.81;45.40;99563.94;5025549;28;20044;-78
2022/04/08 11:26:53;;;;;;;14.93;5.13;;;;;;;18.81;45.24;99572.19;5024307;28;20045;-79
2022/04/08 11:29:37;;;;;;;13.82;4.25;;;;;;;18.85;46.06;99572.97;5023968;28;20049;-79
2022/04/08 11:32:31;;;;;;;9.52;4.03;;;;;;;19.01;45.63;99576.06;5026362;28;20045;-79
2022/04/08 11:35:16;;;;;;;16.90;4.45;;;;;;;18.97;45.77;99567.03;5036148;28;20048;-79
2022/04/08 11:38:10;;;;;;;;;;;;;;;19.17;45.06;99559.06;5037106;28;20418;-79
2022/04/08 11:40:55;;;;;;;10.63;4.28;;;;;;;19.19;44.77;99563.00;5035821;28;20302;-79
2022/04/08 11:43:40;;;;;;;13.95;4.20;;;;;;;19.02;45.01;99560.31;5036734;28;20044;-79
2022/04/08 11:46:26;;;;;;;16.60;4.40;;;;;;;18.98;44.97;99552.06;5021972;28;20056;-79
2022/04/08 11:49:11;;;;;;;13.93;4.20;;;;;;;18.89;45.65;99548.97;5025659;28;20052;-79
2022/04/08 11:52:03;;;;;;;13.52;4.57;;;;;;;19.01;45.76;99544.97;5030036;28;20044;-78
2022/04/08 11:54:48;;;;;;;11.43;5.00;;;;;;;19.42;44.70;99548.69;5012990;28;20049;-78
2022/04/08 11:57:35;;;;;;;14.25;4.80;;;;;;;19.46;43.99;99537.66;5016331;28;20053;-78
2022/04/08 12:00:30;;;;;;;15.40;5.60;;;;;;;19.31;43.70;99538.91;5015840;28;20048;-80
2022/04/08 12:03:27;;;;;;;7.93;3.85;;;;;;;19.27;44.88;99541.69;5016136;28;20049;-78
2022/04/08 12:06:12;;;;;;;12.27;4.60;;;;;;;19.06;44.79;99537.06;5015820;28;20049;-79
2022/04/08 12:09:01;;;;;;;9.35;4.30;;;;;;;19.14;44.37;99535.06;5016268;28;20052;-78
2022/04/08 12:11:47;;;;;;;12.57;5.18;;;;;;;19.39;44.64;99526.66;5016271;28;20049;-78
2022/04/08 12:14:32;;;;;;;6.65;3.40;;;;;;;19.43;44.43;99519.16;5016709;28;20072;-78
2022/04/08 12:17:17;;;;;;;12.80;4.63;;;;;;;19.56;44.30;99504.50;5016444;28;20049;-79
2022/04/08 12:20:02;;;;;;;11.35;4.68;;;;;;;19.18;44.66;99505.50;5000199;28;20056;-78
2022/04/08 12:22:51;;;;;;;10.55;3.83;;;;;;;18.99;45.35;99508.78;5014168;28;20049;-78
2022/04/08 12:25:37;;;;;;;8.95;4.40;;;;;;;19.07;44.84;99488.25;5001632;28;20057;-79
2022/04/08 12:28:23;;;;;;;14.32;4.00;;;;;;;19.21;45.09;99488.16;5005562;28;20052;-79
2022/04/08 12:31:14;;;;;;;8.95;4.32;;;;;;;19.20;45.32;99484.63;5014438;28;20521;-80
2022/04/08 12:33:59;;;;;;;;;;;;;;;19.87;43.97;99480.59;5016932;28;20405;-79
2022/04/08 12:36:45;;;;;;;;;;;;;;;20.20;43.44;99479.13;5036792;22;19925;-84
2022/04/08 12:39:29;;;;;;;;;;;;;;;20.32;42.95;99475.84;5008881;28;19925;-76
2022/04/08 12:42:14;;;;;;;;;;;;;;;20.51;42.94;99477.25;5012945;28;19914;-78
2022/04/08 12:44:59;;;;;;;;;;;;;;;20.71;42.22;99471.88;5012327;28;19918;-76
2022/04/08 12:47:43;;;;;;;;;;;;;;;20.78;41.88;99477.28;5012303;28;19913;-77
2022/04/08 12:50:28;;;;;;;;;;;;;;;20.80;41.70;99469.38;5012568;28;19913;-77
2022/04/08 12:53:13;;;;;;;;;;;;;;;20.86;42.44;99465.75;5011883;28;20377;-77
2022/04/08 12:55:57;;;;;;;;;;;;;;;20.83;41.87;99465.78;5002126;28;20385;-77